Loehmanns Plaza, New York
Current Conditions -  °F | °C
As of 8:54 AM on Monday 20 Oct 2014 (Local Time) from KROC Reporting Station
Overcast Overcast  
Wind Chill: 40°   Ceiling: 10000
Heat Index: 45°   Visibility: 10mi
Dew Point: 34°   Wind: 10mph
Humidity: 65%   Direction: 210°SSW
Pressure: 29.95"   Gusts: NA
Location:  43.1139°N, 77.556°W
Report Text: KROC 201254Z 21009KT 10SM SCT030 BKN100 OVC200 07/01 A2995 RMK AO2 SLP150 T00720011
Loading
Personal Weather Stations






























Interactive Weather Map
Tropical Storm Tracking
New forecast layout! Learn more

10-Day Weather Forecast

Advertisements
Track Severe Weather on mobile